Time,TemperatureF,DewpointF,PressureIn,WindDirection,WindDirectionDegrees,WindSpeedMPH,WindSpeedGustMPH,Humidity,HourlyPrecipIn,Conditions,Clouds,dailyrainin,SolarRadiationWatts/m^2,SoftwareType,DateUTC
2013-04-08 00:12:00,35.0,28.0,-100.00,NW,312,8.0,17.0,74,0.00,,,0.42,0.000000,,2013-04-08 07:12:00,
2013-04-08 00:22:00,35.0,28.0,-100.00,NW,312,8.0,17.0,74,0.00,,,0.42,0.000000,,2013-04-08 07:22:00,
2013-04-08 00:32:00,35.0,28.0,-100.00,NW,312,8.0,17.0,74,0.00,,,0.42,0.000000,,2013-04-08 07:32:00,
2013-04-08 00:42:00,35.0,28.0,-100.00,NW,312,8.0,17.0,74,0.00,,,0.42,0.000000,,2013-04-08 07:42:00,
2013-04-08 01:22:00,34.0,28.0,-100.00,WNW,301,8.0,11.0,78,0.00,,,0.42,0.000000,,2013-04-08 08:22:00,
2013-04-08 01:32:00,34.0,28.0,-100.00,WNW,301,8.0,11.0,78,0.00,,,0.42,0.000000,,2013-04-08 08:32:00,
2013-04-08 01:42:00,34.0,28.0,-100.00,WNW,301,8.0,11.0,78,0.00,,,0.42,0.000000,,2013-04-08 08:42:00,
2013-04-08 02:12:00,35.0,29.0,-100.00,NW,306,11.0,14.0,79,0.00,,,0.42,0.000000,,2013-04-08 09:12:00,
2013-04-08 02:22:00,35.0,29.0,-100.00,NW,306,11.0,14.0,79,0.00,,,0.42,0.000000,,2013-04-08 09:22:00,
2013-04-08 02:33:00,35.0,29.0,-100.00,NW,306,11.0,14.0,79,0.00,,,0.42,0.000000,,2013-04-08 09:33:00,
2013-04-08 02:42:00,35.0,29.0,-100.00,NW,306,11.0,14.0,79,0.00,,,0.42,0.000000,,2013-04-08 09:42:00,
2013-04-08 03:13:00,35.0,30.0,-100.00,NW,318,6.0,16.0,82,0.00,,,0.42,0.000000,,2013-04-08 10:13:00,
2013-04-08 03:23:00,35.0,30.0,-100.00,NW,318,6.0,16.0,82,0.00,,,0.42,0.000000,,2013-04-08 10:23:00,
2013-04-08 03:32:00,35.0,30.0,-100.00,NW,318,6.0,16.0,82,0.00,,,0.42,0.000000,,2013-04-08 10:32:00,
2013-04-08 03:42:00,35.0,30.0,-100.00,NW,318,6.0,16.0,82,0.00,,,0.42,0.000000,,2013-04-08 10:42:00,
2013-04-08 04:12:00,35.0,31.0,-100.00,NNW,334,8.0,14.0,84,0.00,,,0.39,0.000000,,2013-04-08 11:12:00,
2013-04-08 04:22:00,35.0,31.0,-100.00,NNW,334,8.0,14.0,84,0.00,,,0.39,0.000000,,2013-04-08 11:22:00,
2013-04-08 04:32:00,35.0,31.0,-100.00,NNW,334,8.0,14.0,84,0.00,,,0.39,0.000000,,2013-04-08 11:32:00,
2013-04-08 04:42:00,35.0,31.0,-100.00,NNW,334,8.0,14.0,84,0.00,,,0.39,0.000000,,2013-04-08 11:42:00,
2013-04-08 05:12:00,36.0,33.0,-100.00,NW,305,6.0,11.0,90,0.00,,,0.33,0.000000,,2013-04-08 12:12:00,
2013-04-08 05:22:00,36.0,33.0,-100.00,NW,305,6.0,11.0,90,0.00,,,0.33,0.000000,,2013-04-08 12:22:00,
2013-04-08 05:32:00,36.0,33.0,-100.00,NW,305,6.0,11.0,90,0.00,,,0.33,0.000000,,2013-04-08 12:32:00,
2013-04-08 05:42:00,36.0,33.0,-100.00,NW,305,6.0,11.0,90,0.00,,,0.33,0.000000,,2013-04-08 12:42:00,
2013-04-08 06:12:00,36.0,33.0,-100.00,NNW,330,6.0,13.0,89,0.00,,,0.25,0.000000,,2013-04-08 13:12:00,
2013-04-08 06:22:00,36.0,33.0,-100.00,NNW,330,6.0,13.0,89,0.00,,,0.25,0.000000,,2013-04-08 13:22:00,
2013-04-08 06:32:00,36.0,33.0,-100.00,NNW,330,6.0,13.0,89,0.00,,,0.25,0.000000,,2013-04-08 13:32:00,
2013-04-08 06:42:00,36.0,33.0,-100.00,NNW,330,6.0,13.0,89,0.00,,,0.25,0.000000,,2013-04-08 13:42:00,
2013-04-08 07:12:00,35.0,32.0,-100.00,NNW,336,4.0,7.0,90,0.00,,,0.17,0.000000,,2013-04-08 14:12:00,
2013-04-08 07:22:00,35.0,32.0,-100.00,NNW,336,4.0,7.0,90,0.00,,,0.17,0.000000,,2013-04-08 14:22:00,
2013-04-08 07:32:00,35.0,32.0,-100.00,NNW,336,4.0,7.0,90,0.00,,,0.17,0.000000,,2013-04-08 14:32:00,
2013-04-08 07:42:00,35.0,32.0,-100.00,NNW,336,4.0,7.0,90,0.00,,,0.17,0.000000,,2013-04-08 14:42:00,
2013-04-08 08:12:00,37.0,32.0,-100.00,NNW,338,2.0,6.0,81,0.00,,,0.13,0.000000,,2013-04-08 15:12:00,
2013-04-08 08:22:00,37.0,32.0,-100.00,NNW,338,2.0,6.0,81,0.00,,,0.13,0.000000,,2013-04-08 15:22:00,
2013-04-08 08:33:00,37.0,32.0,-100.00,NNW,338,2.0,6.0,81,0.00,,,0.13,0.000000,,2013-04-08 15:33:00,
2013-04-08 08:42:00,37.0,32.0,-100.00,NNW,338,2.0,6.0,81,0.00,,,0.13,0.000000,,2013-04-08 15:42:00,
2013-04-08 09:13:00,39.0,33.0,-100.00,WNW,303,5.0,8.0,78,0.00,,,0.10,26.000000,,2013-04-08 16:13:00,
2013-04-08 09:22:00,39.0,33.0,-100.00,WNW,303,5.0,8.0,78,0.00,,,0.10,26.000000,,2013-04-08 16:22:00,
2013-04-08 09:32:00,39.0,33.0,-100.00,WNW,303,5.0,8.0,78,0.00,,,0.10,26.000000,,2013-04-08 16:32:00,
2013-04-08 09:42:00,39.0,33.0,-100.00,WNW,303,5.0,8.0,78,0.00,,,0.10,26.000000,,2013-04-08 16:42:00,
2013-04-08 10:12:00,41.0,35.0,-100.00,NE,34,5.0,9.0,78,0.00,,,0.02,97.000000,,2013-04-08 17:12:00,
2013-04-08 10:22:00,41.0,35.0,-100.00,NE,34,5.0,9.0,78,0.00,,,0.02,97.000000,,2013-04-08 17:22:00,
2013-04-08 10:32:00,41.0,35.0,-100.00,NE,34,5.0,9.0,78,0.00,,,0.02,97.000000,,2013-04-08 17:32:00,
2013-04-08 10:42:00,41.0,35.0,-100.00,NE,34,5.0,9.0,78,0.00,,,0.02,97.000000,,2013-04-08 17:42:00,
2013-04-08 11:12:00,42.0,36.0,-100.00,NNE,31,6.0,10.0,78,0.00,,,0.00,162.000000,,2013-04-08 18:12:00,
2013-04-08 11:22:00,42.0,36.0,-100.00,NNE,31,6.0,10.0,78,0.00,,,0.00,162.000000,,2013-04-08 18:22:00,
2013-04-08 11:32:00,42.0,36.0,-100.00,NNE,31,6.0,10.0,78,0.00,,,0.00,162.000000,,2013-04-08 18:32:00,
2013-04-08 11:42:00,42.0,36.0,-100.00,NNE,31,6.0,10.0,78,0.00,,,0.00,162.000000,,2013-04-08 18:42:00,
2013-04-08 12:12:00,44.0,36.0,-100.00,NE,38,6.0,11.0,74,0.00,,,0.00,229.000000,,2013-04-08 19:12:00,
2013-04-08 12:22:00,44.0,36.0,-100.00,NE,38,6.0,11.0,74,0.00,,,0.00,229.000000,,2013-04-08 19:22:00,
2013-04-08 12:33:00,44.0,36.0,-100.00,NE,38,6.0,11.0,74,0.00,,,0.00,229.000000,,2013-04-08 19:33:00,
2013-04-08 12:42:00,44.0,36.0,-100.00,NE,38,6.0,11.0,74,0.00,,,0.00,229.000000,,2013-04-08 19:42:00,
2013-04-08 13:12:00,47.0,37.0,-100.00,NNE,31,8.0,15.0,68,0.00,,,0.00,671.000000,,2013-04-08 20:12:00,
2013-04-08 13:22:00,47.0,37.0,-100.00,NNE,31,8.0,15.0,68,0.00,,,0.00,671.000000,,2013-04-08 20:22:00,
2013-04-08 13:32:00,47.0,37.0,-100.00,NNE,31,8.0,15.0,68,0.00,,,0.00,671.000000,,2013-04-08 20:32:00,
2013-04-08 13:42:00,47.0,37.0,-100.00,NNE,31,8.0,15.0,68,0.00,,,0.00,671.000000,,2013-04-08 20:42:00,
2013-04-08 14:12:00,48.0,36.0,-100.00,NE,55,9.0,16.0,62,0.00,,,0.00,630.000000,,2013-04-08 21:12:00,
2013-04-08 14:22:00,48.0,36.0,-100.00,NE,55,9.0,16.0,62,0.00,,,0.00,630.000000,,2013-04-08 21:22:00,
2013-04-08 14:32:00,48.0,36.0,-100.00,NE,55,9.0,16.0,62,0.00,,,0.00,630.000000,,2013-04-08 21:32:00,
2013-04-08 14:42:00,48.0,36.0,-100.00,NE,55,9.0,16.0,62,0.00,,,0.00,630.000000,,2013-04-08 21:42:00,
2013-04-08 15:13:00,48.0,35.0,-100.00,NE,50,6.0,14.0,60,0.00,,,0.00,322.000000,,2013-04-08 22:13:00,
2013-04-08 15:22:00,48.0,35.0,-100.00,NE,50,6.0,14.0,60,0.00,,,0.00,322.000000,,2013-04-08 22:22:00,
2013-04-08 15:32:00,48.0,35.0,-100.00,NE,50,6.0,14.0,60,0.00,,,0.00,322.000000,,2013-04-08 22:32:00,
2013-04-08 15:42:00,48.0,35.0,-100.00,NE,50,6.0,14.0,60,0.00,,,0.00,322.000000,,2013-04-08 22:42:00,
2013-04-08 16:12:00,49.0,34.0,-100.00,East,81,3.0,15.0,57,0.00,,,0.00,127.000000,,2013-04-08 23:12:00,
2013-04-08 16:22:00,49.0,34.0,-100.00,East,81,3.0,15.0,57,0.00,,,0.00,127.000000,,2013-04-08 23:22:00,
2013-04-08 16:32:00,49.0,34.0,-100.00,East,81,3.0,15.0,57,0.00,,,0.00,127.000000,,2013-04-08 23:32:00,
2013-04-08 16:42:00,49.0,34.0,-100.00,East,81,3.0,15.0,57,0.00,,,0.00,127.000000,,2013-04-08 23:42:00,
2013-04-08 17:12:00,48.0,32.0,-100.00,NE,38,0.0,6.0,54,0.00,,,0.00,33.000000,,2013-04-09 00:12:00,
2013-04-08 17:22:00,48.0,32.0,-100.00,NE,38,0.0,6.0,54,0.00,,,0.00,33.000000,,2013-04-09 00:22:00,
2013-04-08 17:32:00,48.0,32.0,-100.00,NE,38,0.0,6.0,54,0.00,,,0.00,33.000000,,2013-04-09 00:32:00,
2013-04-08 17:42:00,48.0,32.0,-100.00,NE,38,0.0,6.0,54,0.00,,,0.00,33.000000,,2013-04-09 00:42:00,
2013-04-08 18:12:00,47.0,38.0,-100.00,SW,221,7.0,17.0,71,0.00,,,0.00,6.000000,,2013-04-09 01:12:00,
2013-04-08 18:22:00,47.0,38.0,-100.00,SW,221,7.0,17.0,71,0.00,,,0.00,6.000000,,2013-04-09 01:22:00,
2013-04-08 18:32:00,47.0,38.0,-100.00,SW,221,7.0,17.0,71,0.00,,,0.00,6.000000,,2013-04-09 01:32:00,
2013-04-08 18:42:00,47.0,38.0,-100.00,SW,221,7.0,17.0,71,0.00,,,0.00,6.000000,,2013-04-09 01:42:00,
2013-04-08 19:12:00,44.0,36.0,-100.00,SW,226,5.0,9.0,74,0.00,,,0.00,36.000000,,2013-04-09 02:12:00,
2013-04-08 19:22:00,44.0,36.0,-100.00,SW,226,5.0,9.0,74,0.00,,,0.00,36.000000,,2013-04-09 02:22:00,
2013-04-08 19:32:00,44.0,36.0,-100.00,SW,226,5.0,9.0,74,0.00,,,0.00,36.000000,,2013-04-09 02:32:00,
2013-04-08 19:42:00,44.0,36.0,-100.00,SW,226,5.0,9.0,74,0.00,,,0.00,36.000000,,2013-04-09 02:42:00,
2013-04-08 20:12:00,42.0,36.0,-100.00,NE,47,9.0,15.0,79,0.00,,,0.00,0.000000,,2013-04-09 03:12:00,
2013-04-08 20:21:00,42.0,36.0,-100.00,NE,47,9.0,15.0,79,0.00,,,0.00,0.000000,,2013-04-09 03:21:00,
2013-04-08 20:32:00,42.0,36.0,-100.00,NE,47,9.0,15.0,79,0.00,,,0.00,0.000000,,2013-04-09 03:32:00,
2013-04-08 20:42:00,42.0,36.0,-100.00,NE,47,9.0,15.0,79,0.00,,,0.00,0.000000,,2013-04-09 03:42:00,
2013-04-08 21:13:00,40.0,37.0,-100.00,SE,129,7.0,11.0,89,0.00,,,0.00,0.000000,,2013-04-09 04:13:00,
2013-04-08 21:22:00,40.0,37.0,-100.00,SE,129,7.0,11.0,89,0.00,,,0.00,0.000000,,2013-04-09 04:22:00,
2013-04-08 21:32:00,40.0,37.0,-100.00,SE,129,7.0,11.0,89,0.00,,,0.00,0.000000,,2013-04-09 04:32:00,
2013-04-08 21:42:00,40.0,37.0,-100.00,SE,129,7.0,11.0,89,0.00,,,0.00,0.000000,,2013-04-09 04:42:00,
2013-04-08 22:12:00,39.0,35.0,-100.00,SSE,163,0.0,8.0,87,0.00,,,0.00,0.000000,,2013-04-09 05:12:00,
2013-04-08 22:22:00,39.0,35.0,-100.00,SSE,163,0.0,8.0,87,0.00,,,0.00,0.000000,,2013-04-09 05:22:00,
2013-04-08 22:32:00,39.0,35.0,-100.00,SSE,163,0.0,8.0,87,0.00,,,0.00,0.000000,,2013-04-09 05:32:00,
2013-04-08 22:42:00,39.0,35.0,-100.00,SSE,163,0.0,8.0,87,0.00,,,0.00,0.000000,,2013-04-09 05:42:00,
2013-04-08 23:12:00,37.0,35.0,-100.00,NNW,327,4.0,6.0,92,0.00,,,0.00,0.000000,,2013-04-09 06:12:00,
2013-04-08 23:22:00,37.0,35.0,-100.00,NNW,327,4.0,6.0,92,0.00,,,0.00,0.000000,,2013-04-09 06:22:00,
2013-04-08 23:32:00,37.0,35.0,-100.00,NNW,327,4.0,6.0,92,0.00,,,0.00,0.000000,,2013-04-09 06:32:00,
2013-04-08 23:42:00,37.0,35.0,-100.00,NNW,327,4.0,6.0,92,0.00,,,0.00,0.000000,,2013-04-09 06:42:00,